createdAt,value
2023-02-01T00:04:51.282Z,96104.65
2023-02-01T00:07:41.046Z,96107.70
2023-02-01T00:10:49.340Z,96106.62
2023-02-01T00:13:38.790Z,96103.44
2023-02-01T00:17:01.060Z,96105.70
2023-02-01T00:20:15.526Z,96100.79
2023-02-01T00:22:42.064Z,96094.02
2023-02-01T00:25:08.782Z,96092.06
2023-02-01T00:27:35.375Z,96093.23
2023-02-01T00:30:02.395Z,96087.36
2023-02-01T00:32:28.926Z,96088.10
2023-02-01T00:34:55.681Z,96089.64
2023-02-01T00:37:23.437Z,96091.77
2023-02-01T00:39:50.604Z,96089.02
2023-02-01T00:42:17.108Z,96090.10
2023-02-01T00:44:43.601Z,96084.77
2023-02-01T00:47:10.072Z,96087.06
2023-02-01T00:49:36.508Z,96085.04
2023-02-01T00:52:03.147Z,96079.63
2023-02-01T00:54:29.806Z,96073.15
2023-02-01T00:56:56.451Z,96068.73
2023-02-01T00:59:22.880Z,96064.10
2023-02-01T01:01:49.317Z,96062.20
2023-02-01T01:04:15.793Z,96057.64
2023-02-01T01:06:42.299Z,96053.38
2023-02-01T01:09:09.943Z,96049.27
2023-02-01T01:11:38.304Z,96045.10
2023-02-01T01:14:08.252Z,96045.14
2023-02-01T01:16:35.986Z,96039.98
2023-02-01T01:19:03.239Z,96039.02
2023-02-01T01:21:30.542Z,96036.96
2023-02-01T01:23:57.511Z,96032.00
2023-02-01T01:26:27.277Z,96032.79
2023-02-01T01:28:56.551Z,96029.95
2023-02-01T01:31:23.466Z,96025.68
2023-02-01T01:33:53.061Z,96024.27
2023-02-01T01:36:20.390Z,96024.42
2023-02-01T01:38:47.731Z,96024.55
2023-02-01T01:41:17.461Z,96027.88
2023-02-01T01:43:55.421Z,96028.55
2023-02-01T01:46:27.063Z,96036.83
2023-02-01T01:49:16.767Z,96039.52
2023-02-01T01:51:49.789Z,96041.36
2023-02-01T01:54:24.685Z,96042.27
2023-02-01T01:57:00.292Z,96043.05
2023-02-01T01:59:27.958Z,96042.29
2023-02-01T02:01:55.871Z,96045.70
2023-02-01T02:04:23.994Z,96049.27
2023-02-01T02:07:01.880Z,96049.92
2023-02-01T02:09:28.671Z,96050.89
2023-02-01T02:11:55.078Z,96056.67
2023-02-01T02:14:23.758Z,96052.54
2023-02-01T02:17:04.457Z,96056.38
2023-02-01T02:19:49.347Z,96059.39
2023-02-01T02:22:40.616Z,96056.64
2023-02-01T02:25:30.371Z,96055.67
2023-02-01T02:28:24.559Z,96054.23
2023-02-01T02:31:12.532Z,96050.23
2023-02-01T02:33:52.306Z,96044.29
2023-02-01T02:36:44.024Z,96036.00
2023-02-01T02:39:28.173Z,96032.16
2023-02-01T02:42:30.125Z,96028.20
2023-02-01T02:45:30.403Z,96026.15
2023-02-01T02:48:11.425Z,96022.47
2023-02-01T02:51:00.712Z,96018.46
2023-02-01T02:53:50.856Z,96016.30
2023-02-01T02:56:41.285Z,96006.59
2023-02-01T02:59:21.338Z,96006.02
2023-02-01T03:02:01.609Z,96011.45
2023-02-01T03:04:28.583Z,96013.70
2023-02-01T03:06:55.263Z,96015.81
2023-02-01T03:09:31.420Z,96015.27
2023-02-01T03:12:22.143Z,96010.04
2023-02-01T03:14:55.329Z,96010.15
2023-02-01T03:17:31.183Z,96003.55
2023-02-01T03:20:03.774Z,95996.44
2023-02-01T03:22:32.043Z,95996.27
2023-02-01T03:25:05.594Z,95987.48
2023-02-01T03:27:40.473Z,95979.27
2023-02-01T03:30:22.208Z,95988.05
2023-02-01T03:32:59.488Z,95974.14
2023-02-01T03:35:37.963Z,95964.41
2023-02-01T03:38:23.627Z,95964.54
2023-02-01T03:40:56.335Z,95968.73
2023-02-01T03:43:26.708Z,95971.48
2023-02-01T03:46:00.655Z,95966.98
2023-02-01T03:48:29.695Z,95964.45
2023-02-01T03:51:00.535Z,95961.42
2023-02-01T03:53:29.746Z,95961.06
2023-02-01T03:55:57.127Z,95958.90
2023-02-01T03:58:23.687Z,95960.41
2023-02-01T04:00:54.414Z,95955.76
2023-02-01T04:03:22.129Z,95961.95
2023-02-01T04:05:50.346Z,95960.76
2023-02-01T04:08:17.386Z,95957.35
2023-02-01T04:10:44.344Z,95955.60
2023-02-01T04:13:10.861Z,95960.15
2023-02-01T04:15:37.842Z,95959.80
2023-02-01T04:18:04.427Z,95956.66
2023-02-01T04:20:31.155Z,95954.91
2023-02-01T04:22:58.029Z,95958.11
2023-02-01T04:25:24.722Z,95960.04
2023-02-01T04:27:51.912Z,95963.92
2023-02-01T04:30:18.555Z,95967.17
2023-02-01T04:32:45.213Z,95972.42
2023-02-01T04:35:12.122Z,95977.52
2023-02-01T04:37:38.771Z,95975.86
2023-02-01T04:40:06.050Z,95969.20
2023-02-01T04:42:32.652Z,95966.63
2023-02-01T04:44:59.209Z,95966.11
2023-02-01T04:47:26.598Z,95967.75
2023-02-01T04:49:53.086Z,95972.61
2023-02-01T04:52:19.652Z,95974.41
2023-02-01T04:54:46.158Z,95975.69
2023-02-01T04:57:13.710Z,95983.95
2023-02-01T04:59:40.154Z,95983.47
2023-02-01T05:02:06.684Z,95981.47
2023-02-01T05:04:33.239Z,95978.06
2023-02-01T05:06:59.824Z,95977.55
2023-02-01T05:09:26.406Z,95978.14
2023-02-01T05:12:11.793Z,95977.36
2023-02-01T05:14:38.307Z,95971.50
2023-02-01T05:17:04.852Z,95975.17
2023-02-01T05:19:31.581Z,95980.39
2023-02-01T05:21:58.075Z,95976.93
2023-02-01T05:24:24.669Z,95980.86
2023-02-01T05:26:51.231Z,95979.92
2023-02-01T05:29:19.572Z,95978.48
2023-02-01T05:31:47.447Z,95977.60
2023-02-01T05:34:15.264Z,95979.65
2023-02-01T05:36:42.358Z,95982.39
2023-02-01T05:39:08.854Z,95984.66
2023-02-01T05:41:35.519Z,95983.84
2023-02-01T05:44:02.990Z,95980.02
2023-02-01T05:46:29.685Z,95977.03
2023-02-01T05:48:56.325Z,95972.58
2023-02-01T05:51:29.461Z,95974.94
2023-02-01T05:53:56.566Z,95974.34
2023-02-01T05:56:26.741Z,95975.73
2023-02-01T05:58:54.388Z,95976.51
2023-02-01T06:01:21.150Z,95981.37
2023-02-01T06:03:53.541Z,95982.17
2023-02-01T06:06:20.272Z,95974.93
2023-02-01T06:08:46.976Z,95973.55
2023-02-01T06:11:30.658Z,95970.48
2023-02-01T06:14:36.067Z,95970.84
2023-02-01T06:18:05.167Z,95976.68
2023-02-01T06:21:41.109Z,95984.43
2023-02-01T06:25:26.365Z,95985.86
2023-02-01T06:29:03.072Z,96000.38
2023-02-01T06:32:43.111Z,96012.52
2023-02-01T06:36:39.183Z,96007.06
2023-02-01T06:40:29.069Z,96001.41
2023-02-01T06:44:25.993Z,96013.14
2023-02-01T06:48:10.233Z,96018.08
2023-02-01T06:51:47.193Z,96026.03
2023-02-01T06:55:41.119Z,96012.89
2023-02-01T06:59:22.226Z,96023.52
2023-02-01T07:06:29.611Z,96025.02
2023-02-01T07:10:12.007Z,96024.60
2023-02-01T07:13:59.099Z,96018.66
2023-02-01T07:17:49.050Z,96021.70
2023-02-01T07:24:42.272Z,96018.95
2023-02-01T07:28:23.108Z,96018.90
2023-02-01T07:31:56.314Z,96024.44
2023-02-01T07:35:21.041Z,96028.08
2023-02-01T07:39:00.181Z,96020.88
2023-02-01T07:42:14.610Z,96026.79
2023-02-01T07:44:44.227Z,96026.10
2023-02-01T07:47:10.784Z,96031.15
2023-02-01T07:49:39.779Z,96028.60
2023-02-01T07:52:13.668Z,96027.64
2023-02-01T07:54:46.467Z,96028.68
2023-02-01T07:58:22.693Z,96036.52
2023-02-01T08:01:23.264Z,96031.48
2023-02-01T08:03:56.762Z,96034.45
2023-02-01T08:06:44.281Z,96036.89
2023-02-01T08:09:14.264Z,96033.30
2023-02-01T08:11:52.541Z,96035.86
2023-02-01T08:14:24.255Z,96036.97
2023-02-01T08:16:53.934Z,96033.98
2023-02-01T08:19:21.012Z,96033.09
2023-02-01T08:21:53.076Z,96036.48
2023-02-01T08:24:19.668Z,96038.91
2023-02-01T08:26:46.242Z,96037.52
2023-02-01T08:29:14.212Z,96033.51
2023-02-01T08:31:47.151Z,96035.41
2023-02-01T08:34:19.282Z,96035.62
2023-02-01T08:36:46.383Z,96041.54
2023-02-01T08:39:21.726Z,96047.05
2023-02-01T08:42:08.522Z,96047.95
2023-02-01T08:44:40.850Z,96053.42
2023-02-01T08:47:07.522Z,96059.30
2023-02-01T08:49:47.336Z,96063.75
2023-02-01T08:52:17.582Z,96065.41
2023-02-01T08:54:49.858Z,96068.95
2023-02-01T08:57:21.956Z,96067.85
2023-02-01T08:59:51.367Z,96067.96
2023-02-01T09:03:33.722Z,96070.63
2023-02-01T09:06:13.127Z,96068.25
2023-02-01T09:08:50.626Z,96064.72
2023-02-01T09:11:41.461Z,96061.77
2023-02-01T09:14:10.609Z,96057.35
2023-02-01T09:16:44.510Z,96060.37
2023-02-01T09:19:27.182Z,96060.79
2023-02-01T09:21:58.386Z,96058.14
2023-02-01T09:24:46.573Z,96060.89
2023-02-01T09:27:23.144Z,96058.48
2023-02-01T09:29:53.148Z,96059.64
2023-02-01T09:32:52.367Z,96055.52
2023-02-01T09:35:20.544Z,96056.16
2023-02-01T09:38:10.335Z,96054.95
2023-02-01T09:40:55.931Z,96049.23
2023-02-01T09:43:44.511Z,96048.92
2023-02-01T09:46:29.254Z,96050.14
2023-02-01T10:19:38.614Z,96066.16
2023-02-01T10:24:43.063Z,96068.50
2023-02-01T10:29:58.484Z,96068.65
2023-02-01T10:34:23.826Z,96069.66
2023-02-01T11:08:29.969Z,96048.45
2023-02-01T11:34:10.415Z,96042.20
2023-02-01T11:37:38.754Z,96044.09
2023-02-01T11:52:13.096Z,96043.66
2023-02-01T11:55:43.810Z,96038.51
2023-02-01T12:31:00.199Z,96009.14
2023-02-01T12:42:22.019Z,96004.11
2023-02-01T12:46:17.440Z,95998.34
2023-02-01T12:56:21.091Z,95995.43
2023-02-01T12:58:37.287Z,95993.19
2023-02-01T13:14:24.497Z,95986.19
2023-02-01T13:35:55.451Z,95984.52
2023-02-01T13:38:56.119Z,95977.16
2023-02-01T13:41:40.215Z,95973.46
2023-02-01T13:44:29.875Z,95962.81
2023-02-01T13:47:03.893Z,95952.46
2023-02-01T13:49:54.370Z,95949.73
2023-02-01T13:56:33.185Z,95943.85
2023-02-01T13:57:22.610Z,95942.75
2023-02-01T14:00:48.827Z,95941.17
2023-02-01T14:03:43.699Z,95943.63
2023-02-01T14:06:38.332Z,95938.88
2023-02-01T14:09:21.708Z,95940.59
2023-02-01T14:12:30.981Z,95939.08
2023-02-01T14:15:25.035Z,95936.34
2023-02-01T14:17:54.377Z,95937.83
2023-02-01T14:20:47.972Z,95933.68
2023-02-01T14:23:22.479Z,95928.41
2023-02-01T14:26:10.262Z,95929.86
2023-02-01T14:28:50.602Z,95932.74
2023-02-01T14:31:43.239Z,95932.24
2023-02-01T14:34:31.605Z,95932.75
2023-02-01T14:37:25.505Z,95936.05
2023-02-01T14:40:03.265Z,95934.39
2023-02-01T14:42:47.892Z,95933.34
2023-02-01T14:45:55.661Z,95938.58
2023-02-01T14:48:45.602Z,95939.40
2023-02-01T14:51:17.355Z,95935.91
2023-02-01T14:53:47.723Z,95936.30
2023-02-01T14:56:21.410Z,95941.94
2023-02-01T14:58:59.314Z,95943.08
2023-02-01T15:01:32.954Z,95942.84
2023-02-01T15:04:19.418Z,95946.84
2023-02-01T15:08:01.890Z,95943.42
2023-02-01T15:10:26.673Z,95945.02
2023-02-01T15:12:57.603Z,95944.88
2023-02-01T15:15:35.552Z,95942.79
2023-02-01T15:18:06.768Z,95941.25
2023-02-01T15:20:47.042Z,95939.27
2023-02-01T15:23:31.206Z,95940.48
2023-02-01T15:26:01.363Z,95932.80
2023-02-01T15:28:32.000Z,95934.95
2023-02-01T15:31:04.488Z,95935.86
2023-02-01T15:33:33.803Z,95933.42
2023-02-01T15:36:19.446Z,95930.08
2023-02-01T15:38:47.562Z,95932.52
2023-02-01T15:41:22.197Z,95933.64
2023-02-01T15:44:10.225Z,95930.70
2023-02-01T15:46:43.784Z,95930.05
2023-02-01T15:49:26.010Z,95928.19
2023-02-01T15:51:56.466Z,95928.64
2023-02-01T15:54:32.118Z,95932.77
2023-02-01T15:57:03.647Z,95936.69
2023-02-01T15:59:42.285Z,95939.20
2023-02-01T16:02:35.534Z,95939.71
2023-02-01T16:05:05.362Z,95946.31
2023-02-01T16:07:35.854Z,95951.64
2023-02-01T16:10:26.048Z,95951.05
2023-02-01T16:12:58.767Z,95949.02
2023-02-01T16:15:30.719Z,95947.27
2023-02-01T16:17:58.671Z,95944.01
2023-02-01T16:20:26.567Z,95941.20
2023-02-01T16:22:54.498Z,95945.73
2023-02-01T16:25:23.297Z,95942.71
2023-02-01T16:27:51.694Z,95938.36
2023-02-01T16:30:24.757Z,95931.73
2023-02-01T16:32:56.094Z,95923.14
2023-02-01T16:35:27.279Z,95924.52
2023-02-01T16:38:01.611Z,95932.42
2023-02-01T16:40:29.753Z,95932.90
2023-02-01T16:42:57.664Z,95937.15
2023-02-01T16:45:25.952Z,95940.17
2023-02-01T16:47:57.121Z,95937.43
2023-02-01T16:50:26.845Z,95934.53
2023-02-01T16:52:54.978Z,95939.21
2023-02-01T16:55:23.696Z,95930.76
2023-02-01T16:57:52.563Z,95924.91
2023-02-01T17:00:25.792Z,95931.48
2023-02-01T17:02:54.532Z,95934.02
2023-02-01T17:05:23.476Z,95926.86
2023-02-01T17:08:18.708Z,95923.42
2023-02-01T17:11:39.061Z,95926.83
2023-02-01T17:14:54.661Z,95921.34
2023-02-01T17:18:17.780Z,95922.72
2023-02-01T17:22:13.005Z,95924.80
2023-02-01T17:25:16.883Z,95925.55
2023-02-01T17:28:28.410Z,95919.83
2023-02-01T17:31:22.500Z,95924.23
2023-02-01T17:33:52.402Z,95930.05
2023-02-01T17:36:20.273Z,95928.86
2023-02-01T17:38:59.898Z,95929.68
2023-02-01T17:41:34.372Z,95934.58
2023-02-01T17:44:27.816Z,95930.92
2023-02-01T17:47:18.037Z,95929.23
2023-02-01T17:49:57.148Z,95929.11
2023-02-01T17:53:07.692Z,95923.75
2023-02-01T17:55:43.216Z,95925.52
2023-02-01T17:58:54.276Z,95930.88
2023-02-01T18:02:26.178Z,95924.61
2023-02-01T18:06:37.674Z,95922.53
2023-02-01T18:14:45.526Z,95924.02
2023-02-01T18:22:55.558Z,95919.21
2023-02-01T18:26:33.702Z,95924.39
2023-02-01T18:29:27.318Z,95928.39
2023-02-01T18:32:35.849Z,95927.52
2023-02-01T18:36:53.795Z,95920.58
2023-02-01T18:39:22.688Z,95919.02
2023-02-01T18:42:21.083Z,95914.51
2023-02-01T18:45:40.206Z,95903.34
2023-02-01T18:48:25.413Z,95898.23
2023-02-01T18:52:03.460Z,95896.73
2023-02-01T18:55:37.917Z,95897.98
2023-02-01T18:59:00.936Z,95899.60
2023-02-01T19:02:31.122Z,95898.16
2023-02-01T19:06:15.225Z,95890.56
2023-02-01T19:10:23.639Z,95887.85
2023-02-01T19:13:51.984Z,95894.04
2023-02-01T19:17:00.430Z,95894.93
2023-02-01T19:19:30.250Z,95895.00
2023-02-01T19:22:27.622Z,95898.45
2023-02-01T19:25:56.593Z,95901.22
2023-02-01T19:29:27.611Z,95902.97
2023-02-01T19:33:02.632Z,95910.41
2023-02-01T19:36:19.633Z,95916.64
2023-02-01T19:40:18.630Z,95922.60
2023-02-01T19:43:51.612Z,95917.64
2023-02-01T19:50:38.649Z,95913.92
2023-02-01T19:54:20.670Z,95913.58
2023-02-01T19:57:54.641Z,95911.34
2023-02-01T20:04:30.807Z,95910.50
2023-02-01T20:07:42.717Z,95912.60
2023-02-01T20:10:54.744Z,95910.88
2023-02-01T20:14:28.754Z,95911.52
2023-02-01T20:17:40.773Z,95911.98
2023-02-01T20:20:53.697Z,95905.71
2023-02-01T20:24:06.844Z,95897.70
2023-02-01T20:27:44.553Z,95897.93
2023-02-01T20:31:17.645Z,95900.71
2023-02-01T20:34:44.173Z,95906.23
2023-02-01T20:38:32.899Z,95902.20
2023-02-01T20:42:35.931Z,95894.97
2023-02-01T20:49:44.694Z,95893.75
2023-02-01T20:53:26.931Z,95888.14
2023-02-01T20:57:18.751Z,95884.70
2023-02-01T21:01:10.670Z,95877.42
2023-02-01T21:04:32.940Z,95870.36
2023-02-01T21:07:46.584Z,95878.46
2023-02-01T21:11:27.764Z,95878.30
2023-02-01T21:18:40.637Z,95890.33
2023-02-01T21:22:06.655Z,95887.39
2023-02-01T21:25:59.650Z,95893.80
2023-02-01T21:29:31.632Z,95892.02
2023-02-01T21:36:51.651Z,95893.19
2023-02-01T21:40:23.671Z,95892.39
2023-02-01T21:44:19.650Z,95889.48
2023-02-01T21:47:48.334Z,95890.83
2023-02-01T21:51:42.652Z,95888.98
2023-02-01T21:55:45.933Z,95888.26
2023-02-01T21:59:16.726Z,95886.20
2023-02-01T22:02:55.680Z,95883.42
2023-02-01T22:06:16.631Z,95883.23
2023-02-01T22:09:56.578Z,95883.60
2023-02-01T22:13:30.765Z,95890.41
2023-02-01T22:16:50.997Z,95891.91
2023-02-01T22:24:23.681Z,95899.20
2023-02-01T22:28:30.404Z,95893.89
2023-02-01T22:31:46.871Z,95891.98
2023-02-01T22:39:00.652Z,95887.24
2023-02-01T22:42:29.559Z,95888.00
2023-02-01T22:45:57.702Z,95886.20
2023-02-01T22:49:31.615Z,95889.15
2023-02-01T22:53:00.762Z,95886.05
2023-02-01T22:56:32.649Z,95888.44
2023-02-01T23:00:08.610Z,95892.30
2023-02-01T23:03:45.719Z,95894.00
2023-02-01T23:07:22.554Z,95888.63
2023-02-01T23:10:57.604Z,95886.50
2023-02-01T23:14:24.918Z,95890.59
2023-02-01T23:17:59.614Z,95891.46
2023-02-01T23:21:30.624Z,95890.98
2023-02-01T23:25:04.543Z,95892.14
2023-02-01T23:28:39.669Z,95894.66
2023-02-01T23:32:12.565Z,95891.75
2023-02-01T23:35:47.619Z,95889.56
2023-02-01T23:39:08.676Z,95894.01
2023-02-01T23:42:42.527Z,95892.39
2023-02-01T23:46:12.710Z,95890.75
2023-02-01T23:49:49.630Z,95891.83
2023-02-01T23:53:18.603Z,95885.73
